createdAt,value
2017-10-31T00:00:03.066Z,6.70
2017-10-31T00:02:30.637Z,6.80
2017-10-31T00:04:58.363Z,6.90
2017-10-31T00:07:25.923Z,6.90
2017-10-31T00:09:53.461Z,6.80
2017-10-31T00:12:21.790Z,7.10
2017-10-31T00:14:49.334Z,7.00
2017-10-31T00:17:16.937Z,7.00
2017-10-31T00:19:44.551Z,7.00
2017-10-31T00:22:12.906Z,7.00
2017-10-31T00:24:40.438Z,7.00
2017-10-31T00:27:09.422Z,7.00
2017-10-31T00:29:37.760Z,7.00
2017-10-31T00:32:05.289Z,7.00
2017-10-31T00:34:32.932Z,7.00
2017-10-31T00:37:01.232Z,7.00
2017-10-31T00:39:28.773Z,7.00
2017-10-31T00:41:57.386Z,7.10
2017-10-31T00:44:25.027Z,7.10
2017-10-31T00:46:52.600Z,7.10
2017-10-31T00:49:20.182Z,7.00
2017-10-31T00:51:47.781Z,7.00
2017-10-31T00:54:16.087Z,7.10
2017-10-31T00:56:43.653Z,7.10
2017-10-31T00:59:11.177Z,7.10
2017-10-31T01:01:39.484Z,7.10
2017-10-31T01:04:07.081Z,7.10
2017-10-31T01:06:34.751Z,7.10
2017-10-31T01:09:02.795Z,7.20
2017-10-31T01:11:30.383Z,7.10
2017-10-31T01:13:57.950Z,7.10
2017-10-31T01:16:25.502Z,7.10
2017-10-31T01:18:53.073Z,7.10
2017-10-31T01:21:21.388Z,7.20
2017-10-31T01:23:48.944Z,7.10
2017-10-31T01:26:16.548Z,7.20
2017-10-31T01:28:44.854Z,7.20
2017-10-31T01:31:12.437Z,7.20
2017-10-31T01:33:40.147Z,7.30
2017-10-31T01:36:07.701Z,7.20
2017-10-31T01:38:35.246Z,7.20
2017-10-31T01:41:02.867Z,7.20
2017-10-31T01:43:30.431Z,7.30
2017-10-31T01:45:57.957Z,7.30
2017-10-31T01:48:26.448Z,7.30
2017-10-31T01:50:53.993Z,7.20
2017-10-31T01:53:22.368Z,7.40
2017-10-31T01:55:49.918Z,7.30
2017-10-31T01:58:18.275Z,7.40
2017-10-31T02:00:45.816Z,7.40
2017-10-31T02:03:13.396Z,7.40
2017-10-31T02:05:40.939Z,7.30
2017-10-31T02:08:08.478Z,7.30
2017-10-31T02:10:36.121Z,7.30
2017-10-31T02:13:03.706Z,7.30
2017-10-31T02:15:31.266Z,7.40
2017-10-31T02:17:58.882Z,7.50
2017-10-31T02:20:26.401Z,7.40
2017-10-31T02:22:53.933Z,7.40
2017-10-31T02:25:21.500Z,7.40
2017-10-31T02:27:49.020Z,7.40
2017-10-31T02:30:16.550Z,7.30
2017-10-31T02:32:44.854Z,7.30
2017-10-31T02:35:12.383Z,7.30
2017-10-31T02:37:39.902Z,7.30
2017-10-31T02:40:07.522Z,7.30
2017-10-31T02:42:35.034Z,7.30
2017-10-31T02:45:02.569Z,7.30
2017-10-31T02:47:30.129Z,7.30
2017-10-31T02:49:57.673Z,7.30
2017-10-31T02:52:25.208Z,7.30
2017-10-31T02:54:53.803Z,7.40
2017-10-31T02:57:21.369Z,7.40
2017-10-31T02:59:48.969Z,7.40
2017-10-31T03:02:16.518Z,7.30
2017-10-31T03:04:44.072Z,7.40
2017-10-31T03:07:11.634Z,7.40
2017-10-31T03:09:39.210Z,7.40
2017-10-31T03:12:06.823Z,7.50
2017-10-31T03:14:34.388Z,7.50
2017-10-31T03:17:01.940Z,7.50
2017-10-31T03:19:29.497Z,7.40
2017-10-31T03:21:57.030Z,7.40
2017-10-31T03:24:25.349Z,7.40
2017-10-31T03:26:52.905Z,7.40
2017-10-31T03:29:20.465Z,7.50
2017-10-31T03:31:48.096Z,7.50
2017-10-31T03:34:15.623Z,7.50
2017-10-31T03:36:44.015Z,7.60
2017-10-31T03:39:12.420Z,7.70
2017-10-31T03:41:39.950Z,7.70
2017-10-31T03:44:08.235Z,7.60
2017-10-31T03:46:35.841Z,7.60
2017-10-31T03:49:03.358Z,7.60
2017-10-31T03:51:30.896Z,7.50
2017-10-31T03:53:59.396Z,7.40
2017-10-31T03:56:27.076Z,7.40
2017-10-31T03:58:54.642Z,7.40
2017-10-31T04:01:22.198Z,7.40
2017-10-31T04:03:49.733Z,7.40
2017-10-31T04:06:17.255Z,7.40
2017-10-31T04:08:44.906Z,7.40
2017-10-31T04:11:13.237Z,7.50
2017-10-31T04:13:40.757Z,7.40
2017-10-31T04:16:09.051Z,7.40
2017-10-31T04:18:36.598Z,7.40
2017-10-31T04:21:04.898Z,7.40
2017-10-31T04:23:34.040Z,7.50
2017-10-31T04:26:01.653Z,7.50
2017-10-31T04:28:29.193Z,7.50
2017-10-31T04:30:57.669Z,7.50
2017-10-31T04:33:25.200Z,7.50
2017-10-31T04:35:52.724Z,7.50
2017-10-31T04:38:20.298Z,7.50
2017-10-31T04:40:47.834Z,7.50
2017-10-31T04:43:15.432Z,7.50
2017-10-31T04:45:43.098Z,7.50
2017-10-31T04:48:11.386Z,7.50
2017-10-31T04:50:39.690Z,7.50
2017-10-31T04:53:07.273Z,7.50
2017-10-31T04:55:34.957Z,7.50
2017-10-31T04:58:03.281Z,7.60
2017-10-31T05:00:30.848Z,7.50
2017-10-31T05:02:58.360Z,7.60
2017-10-31T05:05:25.937Z,7.50
2017-10-31T05:07:54.387Z,7.60
2017-10-31T05:10:22.697Z,7.60
2017-10-31T05:12:51.004Z,7.60
2017-10-31T05:15:18.580Z,7.60
2017-10-31T05:17:46.140Z,7.60
2017-10-31T05:20:13.706Z,7.60
2017-10-31T05:22:41.409Z,7.60
2017-10-31T05:25:08.962Z,7.60
2017-10-31T05:27:37.282Z,7.60
2017-10-31T05:30:04.857Z,7.60
2017-10-31T05:32:32.389Z,7.60
2017-10-31T05:34:59.975Z,7.60
2017-10-31T05:37:27.684Z,7.60
2017-10-31T05:39:55.245Z,7.70
2017-10-31T05:42:23.859Z,7.60
2017-10-31T05:44:51.598Z,7.60
2017-10-31T05:47:19.159Z,7.60
2017-10-31T05:49:46.712Z,7.60
2017-10-31T05:52:14.265Z,7.60
2017-10-31T05:54:41.806Z,7.60
2017-10-31T05:57:10.102Z,7.60
2017-10-31T05:59:37.674Z,7.50
2017-10-31T06:02:05.214Z,7.60
2017-10-31T06:04:32.764Z,7.60
2017-10-31T06:07:01.093Z,7.60
2017-10-31T06:09:28.625Z,7.60
2017-10-31T06:11:56.185Z,7.70
2017-10-31T06:14:23.773Z,7.70
2017-10-31T06:16:51.303Z,7.70
2017-10-31T06:19:18.836Z,7.80
2017-10-31T06:21:51.946Z,7.80
2017-10-31T06:24:25.286Z,7.80
2017-10-31T06:30:00.555Z,7.80
2017-10-31T06:32:28.915Z,7.90
2017-10-31T06:34:56.671Z,7.90
2017-10-31T06:37:25.705Z,7.80
2017-10-31T06:39:53.286Z,7.80
2017-10-31T06:42:21.191Z,7.90
2017-10-31T06:44:48.741Z,7.90
2017-10-31T06:47:16.333Z,8.00
2017-10-31T06:49:44.625Z,8.10
2017-10-31T06:52:12.152Z,8.10
2017-10-31T06:54:39.764Z,8.00
2017-10-31T06:57:07.293Z,7.90
2017-10-31T06:59:34.837Z,7.80
2017-10-31T07:02:03.331Z,7.70
2017-10-31T07:04:30.889Z,7.70
2017-10-31T07:06:58.450Z,7.70
2017-10-31T07:09:26.829Z,7.70
2017-10-31T07:11:55.116Z,7.70
2017-10-31T07:14:22.663Z,7.70
2017-10-31T07:16:50.230Z,7.80
2017-10-31T07:19:17.780Z,7.80
2017-10-31T07:21:46.022Z,7.90
2017-10-31T07:24:13.925Z,7.90
2017-10-31T07:26:41.453Z,7.90
2017-10-31T07:29:10.015Z,7.90
2017-10-31T07:31:37.650Z,7.90
2017-10-31T07:34:05.182Z,7.90
2017-10-31T07:36:32.785Z,7.90
2017-10-31T07:39:00.645Z,7.90
2017-10-31T07:41:28.260Z,8.00
2017-10-31T07:43:56.568Z,8.00
2017-10-31T07:46:24.318Z,8.00
2017-10-31T07:48:51.901Z,8.00
2017-10-31T07:51:19.437Z,8.00
2017-10-31T07:53:47.493Z,8.00
2017-10-31T07:56:15.020Z,8.10
2017-10-31T07:58:43.316Z,8.30
2017-10-31T08:01:10.999Z,8.20
2017-10-31T08:03:38.768Z,8.30
2017-10-31T08:06:06.509Z,8.40
2017-10-31T08:08:34.278Z,8.50
2017-10-31T08:11:01.815Z,8.60
2017-10-31T08:13:30.118Z,8.70
2017-10-31T08:15:57.950Z,8.60
2017-10-31T08:18:25.620Z,8.70
2017-10-31T08:20:53.199Z,8.80
2017-10-31T08:23:20.938Z,8.80
2017-10-31T08:25:48.502Z,8.90
2017-10-31T08:28:16.078Z,8.90
2017-10-31T08:30:44.029Z,8.80
2017-10-31T08:33:11.722Z,8.80
2017-10-31T08:35:39.303Z,8.90
2017-10-31T08:38:07.021Z,8.90
2017-10-31T08:40:34.558Z,8.90
2017-10-31T08:43:02.887Z,9.10
2017-10-31T08:45:30.434Z,9.10
2017-10-31T08:47:57.980Z,9.20
2017-10-31T08:50:25.548Z,9.30
2017-10-31T08:52:53.101Z,9.40
2017-10-31T08:55:20.706Z,9.40
2017-10-31T08:57:49.034Z,9.60
2017-10-31T09:00:16.634Z,9.60
2017-10-31T09:02:44.178Z,9.60
2017-10-31T09:05:11.717Z,9.70
2017-10-31T09:07:39.277Z,9.70
2017-10-31T09:10:06.802Z,9.60
2017-10-31T09:12:34.722Z,9.60
2017-10-31T09:15:02.299Z,9.60
2017-10-31T09:17:30.725Z,9.70
2017-10-31T09:19:58.309Z,9.70
2017-10-31T09:22:26.123Z,9.70
2017-10-31T09:24:54.319Z,9.70
2017-10-31T09:27:21.892Z,9.60
2017-10-31T09:29:49.443Z,9.60
2017-10-31T09:32:17.103Z,9.60
2017-10-31T09:34:44.639Z,9.70
2017-10-31T09:37:12.256Z,9.70
2017-10-31T09:39:39.806Z,9.80
2017-10-31T09:42:07.369Z,9.80
2017-10-31T09:44:34.947Z,9.90
2017-10-31T09:47:03.266Z,10.00
2017-10-31T09:49:30.833Z,9.90
2017-10-31T09:51:58.410Z,10.00
2017-10-31T09:54:25.995Z,10.00
2017-10-31T09:56:53.559Z,10.20
2017-10-31T09:59:21.976Z,10.80
2017-10-31T10:01:49.506Z,10.70
2017-10-31T10:04:17.800Z,11.00
2017-10-31T10:06:45.587Z,11.00
2017-10-31T10:09:13.707Z,11.10
2017-10-31T10:11:42.123Z,11.40
2017-10-31T10:14:09.666Z,11.40
2017-10-31T10:16:37.224Z,11.40
2017-10-31T10:19:04.776Z,11.30
2017-10-31T10:21:33.133Z,11.30
2017-10-31T10:24:00.844Z,11.20
2017-10-31T10:26:28.406Z,11.20
2017-10-31T10:28:55.974Z,11.10
2017-10-31T10:31:23.512Z,11.10
2017-10-31T10:33:51.073Z,11.10
2017-10-31T10:36:18.935Z,11.20
2017-10-31T10:38:46.523Z,11.30
2017-10-31T10:41:14.088Z,11.40
2017-10-31T10:43:41.658Z,11.30
2017-10-31T10:48:43.214Z,11.50
2017-10-31T10:51:10.861Z,11.50
2017-10-31T10:53:38.401Z,11.50
2017-10-31T10:56:05.983Z,11.50
2017-10-31T10:58:33.532Z,11.30
2017-10-31T11:01:01.096Z,11.30
2017-10-31T11:03:28.931Z,11.40
2017-10-31T11:05:56.557Z,11.60
2017-10-31T11:08:24.863Z,12.00
2017-10-31T11:10:52.512Z,12.00
2017-10-31T11:13:20.049Z,12.30
2017-10-31T11:15:48.367Z,12.40
2017-10-31T11:18:16.232Z,12.40
2017-10-31T11:20:43.759Z,12.30
2017-10-31T11:23:12.068Z,12.20
2017-10-31T11:25:39.626Z,12.20
2017-10-31T11:28:07.181Z,12.20
2017-10-31T11:30:34.706Z,11.90
2017-10-31T11:33:03.218Z,11.70
2017-10-31T11:35:30.778Z,11.70
2017-10-31T11:37:58.322Z,11.60
2017-10-31T11:40:26.317Z,11.70
2017-10-31T11:42:53.860Z,11.80
2017-10-31T11:45:21.411Z,11.90
2017-10-31T11:47:49.074Z,12.00
2017-10-31T11:50:16.598Z,12.10
2017-10-31T11:52:44.146Z,12.20
2017-10-31T11:55:12.531Z,12.20
2017-10-31T11:57:40.222Z,12.20
2017-10-31T12:00:07.773Z,12.10
2017-10-31T12:02:35.334Z,12.20
2017-10-31T12:05:02.897Z,12.20
2017-10-31T12:07:30.446Z,12.00
2017-10-31T12:09:58.082Z,12.10
2017-10-31T12:12:26.414Z,12.40
2017-10-31T12:14:53.958Z,12.30
2017-10-31T12:17:21.620Z,12.50
2017-10-31T12:19:49.229Z,12.50
2017-10-31T12:22:16.800Z,12.60
2017-10-31T12:24:45.262Z,12.70
2017-10-31T12:27:12.810Z,12.70
2017-10-31T12:29:40.346Z,12.50
2017-10-31T12:32:08.090Z,12.50
2017-10-31T12:34:35.651Z,12.50
2017-10-31T12:37:03.164Z,12.50
2017-10-31T12:39:31.510Z,12.30
2017-10-31T12:41:59.029Z,12.30
2017-10-31T12:44:26.625Z,12.30
2017-10-31T12:46:54.215Z,12.40
2017-10-31T12:49:21.741Z,12.20
2017-10-31T12:51:49.297Z,12.10
2017-10-31T12:54:16.867Z,12.10
2017-10-31T12:56:44.395Z,12.20
2017-10-31T12:59:11.944Z,12.30
2017-10-31T13:01:39.517Z,12.40
2017-10-31T13:04:07.184Z,12.30
2017-10-31T13:06:34.710Z,12.40
2017-10-31T13:09:02.692Z,12.40
2017-10-31T13:11:30.221Z,12.40
2017-10-31T13:13:58.627Z,12.30
2017-10-31T13:16:26.217Z,12.30
2017-10-31T13:18:53.768Z,12.20
2017-10-31T13:21:21.354Z,12.10
2017-10-31T13:23:48.997Z,12.10
2017-10-31T13:26:17.411Z,12.00
2017-10-31T13:28:46.650Z,12.00
2017-10-31T13:31:14.961Z,12.00
2017-10-31T13:33:43.274Z,12.00
2017-10-31T13:36:12.690Z,12.00
2017-10-31T13:38:41.503Z,12.00
2017-10-31T13:41:09.883Z,11.90
2017-10-31T13:43:38.097Z,11.80
2017-10-31T13:46:06.818Z,11.90
2017-10-31T13:48:34.639Z,11.90
2017-10-31T13:51:02.598Z,11.90
2017-10-31T13:53:30.167Z,11.90
2017-10-31T13:55:58.490Z,12.00
2017-10-31T13:58:26.025Z,12.00
2017-10-31T14:00:54.477Z,12.00
2017-10-31T14:03:22.984Z,11.90
2017-10-31T14:05:51.113Z,11.90
2017-10-31T14:08:19.389Z,11.90
2017-10-31T14:10:47.753Z,11.90
2017-10-31T14:13:15.323Z,11.80
2017-10-31T14:15:42.930Z,11.80
2017-10-31T14:18:11.504Z,11.80
2017-10-31T14:20:40.001Z,11.80
2017-10-31T14:23:07.723Z,11.80
2017-10-31T14:25:37.008Z,11.80
2017-10-31T14:28:05.197Z,11.80
2017-10-31T14:30:32.936Z,11.80
2017-10-31T14:33:00.574Z,11.80
2017-10-31T14:35:29.011Z,11.80
2017-10-31T14:37:57.623Z,11.70
2017-10-31T14:40:25.201Z,11.70
2017-10-31T14:42:52.754Z,11.70
2017-10-31T14:45:20.309Z,11.70
2017-10-31T14:47:47.924Z,11.70
2017-10-31T14:50:16.309Z,11.60
2017-10-31T14:52:44.664Z,11.60
2017-10-31T14:55:12.253Z,11.50
2017-10-31T14:57:39.844Z,11.60
2017-10-31T15:00:07.451Z,11.50
2017-10-31T15:02:35.773Z,11.40
2017-10-31T15:05:03.395Z,11.40
2017-10-31T15:07:31.799Z,11.40
2017-10-31T15:09:59.366Z,11.40
2017-10-31T15:12:26.953Z,11.40
2017-10-31T15:14:54.510Z,11.40
2017-10-31T15:17:22.101Z,11.40
2017-10-31T15:19:50.479Z,11.30
2017-10-31T15:22:19.175Z,11.30
2017-10-31T15:24:48.481Z,11.20
2017-10-31T15:27:16.566Z,11.20
2017-10-31T15:29:44.117Z,11.20
2017-10-31T15:32:11.892Z,11.10
2017-10-31T15:34:39.477Z,11.10
2017-10-31T15:37:07.012Z,11.10
2017-10-31T15:39:34.575Z,11.10
2017-10-31T15:42:02.254Z,11.00
2017-10-31T15:44:29.790Z,11.00
2017-10-31T15:46:57.385Z,11.00
2017-10-31T15:49:25.088Z,10.90
2017-10-31T15:51:53.084Z,10.90
2017-10-31T15:54:20.663Z,10.90
2017-10-31T15:56:48.257Z,10.90
2017-10-31T15:59:16.580Z,10.80
2017-10-31T16:01:44.133Z,10.80
2017-10-31T16:04:12.135Z,10.80
2017-10-31T16:06:39.666Z,10.80
2017-10-31T16:09:07.278Z,10.80
2017-10-31T16:11:34.876Z,10.80
2017-10-31T16:14:02.437Z,10.80
2017-10-31T16:16:29.987Z,10.80
2017-10-31T16:18:57.583Z,10.80
2017-10-31T16:21:25.149Z,10.80
2017-10-31T16:23:52.787Z,10.80
2017-10-31T16:26:21.661Z,10.70
2017-10-31T16:28:49.883Z,10.70
2017-10-31T16:31:18.179Z,10.70
2017-10-31T16:33:46.158Z,10.60
2017-10-31T16:36:13.732Z,10.60
2017-10-31T16:38:41.291Z,10.70
2017-10-31T16:41:08.843Z,10.70
2017-10-31T16:43:36.401Z,10.70
2017-10-31T16:46:03.971Z,10.70
2017-10-31T16:48:31.549Z,10.60
2017-10-31T16:50:59.115Z,10.70
2017-10-31T16:53:27.754Z,10.70
2017-10-31T16:55:55.332Z,10.70
2017-10-31T16:58:22.885Z,10.70
2017-10-31T17:00:50.765Z,10.80
2017-10-31T17:03:18.485Z,10.80
2017-10-31T17:05:46.029Z,10.80
2017-10-31T17:08:14.423Z,10.70
2017-10-31T17:10:42.106Z,10.70
2017-10-31T17:13:09.653Z,10.70
2017-10-31T17:15:37.268Z,10.70
2017-10-31T17:18:04.825Z,10.70
2017-10-31T17:20:33.184Z,10.70
2017-10-31T17:23:01.015Z,10.70
2017-10-31T17:25:29.685Z,10.70
2017-10-31T17:27:57.327Z,10.70
2017-10-31T17:30:25.669Z,10.70
2017-10-31T17:32:53.346Z,10.70
2017-10-31T17:35:20.904Z,10.70
2017-10-31T17:37:48.492Z,10.70
2017-10-31T17:40:16.043Z,10.70
2017-10-31T17:42:44.445Z,10.70
2017-10-31T17:45:12.077Z,10.70
2017-10-31T17:47:40.374Z,10.70
2017-10-31T17:50:07.936Z,10.70
2017-10-31T17:52:35.551Z,10.70
2017-10-31T17:55:03.977Z,10.70
2017-10-31T17:57:31.573Z,10.70
2017-10-31T17:59:59.172Z,10.70
2017-10-31T18:02:28.528Z,10.60
2017-10-31T18:04:56.100Z,10.60
2017-10-31T18:07:23.840Z,10.60
2017-10-31T18:09:51.425Z,10.50
2017-10-31T18:12:19.016Z,10.60
2017-10-31T18:14:46.646Z,10.80
2017-10-31T18:17:14.215Z,10.80
2017-10-31T18:19:42.528Z,10.60
2017-10-31T18:22:10.112Z,10.70
2017-10-31T18:24:37.658Z,10.70
2017-10-31T18:27:05.211Z,10.60
2017-10-31T18:29:32.845Z,10.60
2017-10-31T18:32:01.613Z,10.60
2017-10-31T18:34:30.053Z,10.60
2017-10-31T18:36:57.690Z,10.60
2017-10-31T18:39:25.245Z,10.60
2017-10-31T18:41:52.798Z,10.60
2017-10-31T18:44:20.391Z,10.60
2017-10-31T18:46:47.992Z,10.60
2017-10-31T18:49:16.455Z,10.60
2017-10-31T18:51:44.270Z,10.60
2017-10-31T18:54:11.841Z,10.60
2017-10-31T18:56:39.530Z,10.60
2017-10-31T18:59:07.376Z,10.60
2017-10-31T19:01:34.979Z,10.60
2017-10-31T19:04:02.648Z,10.60
2017-10-31T19:06:30.253Z,10.60
2017-10-31T19:08:57.838Z,10.60
2017-10-31T19:11:25.414Z,10.60
2017-10-31T19:13:53.760Z,10.60
2017-10-31T19:16:21.306Z,10.60
2017-10-31T19:18:48.862Z,10.60
2017-10-31T19:21:16.454Z,10.50
2017-10-31T19:23:44.774Z,10.60
2017-10-31T19:26:12.357Z,10.60
2017-10-31T19:28:40.078Z,10.60
2017-10-31T19:31:07.894Z,10.50
2017-10-31T19:33:35.463Z,10.60
2017-10-31T19:36:03.053Z,10.50
2017-10-31T19:38:31.379Z,10.50
2017-10-31T19:40:58.933Z,10.50
2017-10-31T19:43:26.548Z,10.50
2017-10-31T19:45:54.258Z,10.50
2017-10-31T19:48:21.836Z,10.50
2017-10-31T19:50:49.464Z,10.60
2017-10-31T19:53:17.801Z,10.50
2017-10-31T19:55:45.380Z,10.60
2017-10-31T19:58:12.966Z,10.60
2017-10-31T20:00:40.501Z,10.60
2017-10-31T20:03:08.080Z,10.60
2017-10-31T20:05:35.635Z,10.50
2017-10-31T20:08:03.166Z,10.60
2017-10-31T20:10:30.731Z,10.60
2017-10-31T20:12:58.449Z,10.60
2017-10-31T20:15:26.724Z,10.60
2017-10-31T20:17:54.284Z,10.60
2017-10-31T20:20:22.683Z,10.60
2017-10-31T20:22:50.229Z,10.60
2017-10-31T20:25:18.550Z,10.60
2017-10-31T20:27:46.171Z,10.50
2017-10-31T20:30:14.487Z,10.60
2017-10-31T20:32:42.790Z,10.60
2017-10-31T20:35:10.375Z,10.50
2017-10-31T20:37:39.542Z,10.50
2017-10-31T20:40:07.140Z,10.50
2017-10-31T20:42:35.540Z,10.50
2017-10-31T20:45:03.091Z,10.50
2017-10-31T20:47:30.758Z,10.50
2017-10-31T20:49:58.364Z,10.50
2017-10-31T20:52:25.887Z,10.50
2017-10-31T20:54:53.601Z,10.50
2017-10-31T20:57:21.239Z,10.50
2017-10-31T20:59:48.806Z,10.50
2017-10-31T21:02:16.425Z,10.50
2017-10-31T21:04:44.177Z,10.50
2017-10-31T21:07:11.751Z,10.50
2017-10-31T21:09:39.323Z,10.50
2017-10-31T21:12:06.940Z,10.50
2017-10-31T21:14:34.474Z,10.40
2017-10-31T21:17:02.759Z,10.30
2017-10-31T21:19:31.213Z,10.20
2017-10-31T21:21:58.926Z,10.20
2017-10-31T21:24:26.474Z,10.10
2017-10-31T21:26:54.101Z,10.10
2017-10-31T21:29:21.674Z,10.10
2017-10-31T21:31:50.006Z,10.10
2017-10-31T21:34:17.589Z,10.10
2017-10-31T21:36:45.148Z,10.10
2017-10-31T21:39:14.258Z,10.10
2017-10-31T21:41:42.768Z,10.10
2017-10-31T21:44:10.355Z,10.10
2017-10-31T21:46:38.982Z,10.10
2017-10-31T21:49:07.324Z,10.10
2017-10-31T21:51:34.858Z,10.10
2017-10-31T21:54:02.413Z,10.20
2017-10-31T21:56:30.002Z,10.20
2017-10-31T21:58:57.556Z,10.20
2017-10-31T22:01:25.084Z,10.20
2017-10-31T22:03:53.531Z,10.20
2017-10-31T22:06:21.852Z,10.20
2017-10-31T22:08:49.432Z,10.20
2017-10-31T22:11:17.017Z,10.20
2017-10-31T22:13:44.675Z,10.20
2017-10-31T22:16:12.985Z,10.20
2017-10-31T22:18:40.870Z,10.20
2017-10-31T22:21:08.416Z,10.30
2017-10-31T22:23:35.966Z,10.30
2017-10-31T22:26:03.517Z,10.30
2017-10-31T22:28:31.100Z,10.20
2017-10-31T22:30:58.692Z,10.30
2017-10-31T22:33:26.305Z,10.30
2017-10-31T22:35:53.897Z,10.40
2017-10-31T22:38:21.629Z,10.40
2017-10-31T22:40:49.298Z,10.50
2017-10-31T22:43:16.835Z,10.50
2017-10-31T22:45:44.364Z,10.50
2017-10-31T22:48:11.931Z,10.50
2017-10-31T22:50:40.236Z,10.50
2017-10-31T22:53:07.785Z,10.50
2017-10-31T22:55:35.363Z,10.60
2017-10-31T22:58:02.919Z,10.60
2017-10-31T23:00:30.475Z,10.50
2017-10-31T23:02:58.116Z,10.50
2017-10-31T23:05:25.703Z,10.40
2017-10-31T23:07:53.253Z,10.50
2017-10-31T23:10:20.856Z,10.50
2017-10-31T23:12:48.409Z,10.50
2017-10-31T23:15:16.015Z,10.40
2017-10-31T23:17:43.608Z,10.50
2017-10-31T23:20:11.198Z,10.50
2017-10-31T23:22:38.788Z,10.60
2017-10-31T23:25:06.469Z,10.50
2017-10-31T23:27:34.028Z,10.60
2017-10-31T23:30:01.884Z,10.50
2017-10-31T23:32:29.462Z,10.50
2017-10-31T23:34:57.078Z,10.40
2017-10-31T23:37:24.609Z,10.50
2017-10-31T23:39:52.174Z,10.40
2017-10-31T23:42:19.757Z,10.40
2017-10-31T23:44:47.299Z,10.30
2017-10-31T23:47:15.658Z,10.30
2017-10-31T23:49:43.246Z,10.20
2017-10-31T23:52:11.557Z,10.30
2017-10-31T23:54:39.205Z,10.20
2017-10-31T23:57:06.809Z,10.20
2017-10-31T23:59:34.348Z,10.40
